^^
Daily Summary for December 09, 2021 Units:  Both    English   Metric
Daily Weekly Monthly Yearly Custom
  High: Low: Average:
Temperature: 48.0 °F /  8.9 °C 35.0 °F /  1.7 °C 43.2 °F /  6.2 °C
Dew Point: 44.0 °F /  6.7 °C 33.0 °F /  0.6 °C 41.1 °F /  5.1 °C
Humidity: 95% 83% 92%
Wind Speed: 11mph /  17.7km/h - 2mph /  3.2km/h
Wind Gust: 10mph /  16.1km/h - -
Wind- - SE
Pressure: 30.2 in /  1022.6 hPa 30.0 in /  1015.8 hPa -
Precipitation: 0.710 in /  18.03 mm    
Historical Graphs
 
 
Tabular Data for December 09, 2021
Time Temperature Dew Point Pressure Wind Wind Speed Wind Gust Humidity Rainfall Rate (Hourly) solar
00:04 46.0 °F /  7.8 °C 44.0 °F /  6.7 °C 30.0in /  1015.8hPa ENE 6mph /  9.7km/h 2mph /  3.2km/h 94% 0.010in /  0.25mm 0.00 W/m2
00:09 46.0 °F /  7.8 °C 44.0 °F /  6.7 °C 30.0in /  1015.8hPa Calm   6mph /  9.7km/h 94% 0.010in /  0.25mm 0.00 W/m2
00:14 46.0 °F /  7.8 °C 44.0 °F /  6.7 °C 30.0in /  1015.8hPa ENE 4mph /  6.4km/h 2mph /  3.2km/h 94% 0.010in /  0.25mm 0.00 W/m2
00:19 46.0 °F /  7.8 °C 44.0 °F /  6.7 °C 30.0in /  1015.8hPa ENE 1mph /  1.6km/h 3mph /  4.8km/h 94% 0.010in /  0.25mm 0.00 W/m2
00:24 46.0 °F /  7.8 °C 44.0 °F /  6.7 °C 30.0in /  1015.8hPa ENE 4mph /  6.4km/h 2mph /  3.2km/h 94% 0.010in /  0.25mm 0.00 W/m2
00:29 46.0 °F /  7.8 °C 44.0 °F /  6.7 °C 30.0in /  1015.8hPa ENE 4mph /  6.4km/h 3mph /  4.8km/h 94% 0.010in /  0.25mm 0.00 W/m2
00:34 46.0 °F /  7.8 °C 44.0 °F /  6.7 °C 30.0in /  1015.8hPa ENE 4mph /  6.4km/h 2mph /  3.2km/h 94% 0.010in /  0.25mm 0.00 W/m2
00:39 46.0 °F /  7.8 °C 44.0 °F /  6.7 °C 30.0in /  1015.8hPa SE 4mph /  6.4km/h 3mph /  4.8km/h 94% 0.000in /  0mm 0.00 W/m2
00:44 46.0 °F /  7.8 °C 44.0 °F /  6.7 °C 30.0in /  1015.8hPa Calm   3mph /  4.8km/h 94% 0.010in /  0.25mm 0.00 W/m2
00:49 46.0 °F /  7.8 °C 44.0 °F /  6.7 °C 30.0in /  1015.8hPa Calm     94% 0.010in /  0.25mm 0.00 W/m2
00:54 46.0 °F /  7.8 °C 44.0 °F /  6.7 °C 30.0in /  1015.8hPa SE 2mph /  3.2km/h   94% 0.010in /  0.25mm 0.00 W/m2
00:59 46.0 °F /  7.8 °C 44.0 °F /  6.7 °C 30.0in /  1015.8hPa Calm     94% 0.010in /  0.25mm 0.00 W/m2
01:04 46.0 °F /  7.8 °C 44.0 °F /  6.7 °C 30.0in /  1015.8hPa Calm     94% 0.020in /  0.51mm 0.00 W/m2
01:09 46.0 °F /  7.8 °C 44.0 °F /  6.7 °C 30.0in /  1015.8hPa ENE 4mph /  6.4km/h 1mph /  1.6km/h 94% 0.020in /  0.51mm 0.00 W/m2
01:14 46.0 °F /  7.8 °C 44.0 °F /  6.7 °C 30.0in /  1015.8hPa East 4mph /  6.4km/h 2mph /  3.2km/h 94% 0.020in /  0.51mm 0.00 W/m2
01:19 46.0 °F /  7.8 °C 44.0 °F /  6.7 °C 30.0in /  1015.8hPa SSE 6mph /  9.7km/h 3mph /  4.8km/h 94% 0.020in /  0.51mm 0.00 W/m2
01:24 46.0 °F /  7.8 °C 44.0 °F /  6.7 °C 30.0in /  1015.8hPa SSE 6mph /  9.7km/h 6mph /  9.7km/h 94% 0.020in /  0.51mm 0.00 W/m2
01:29 46.0 °F /  7.8 °C 44.0 °F /  6.7 °C 30.0in /  1015.8hPa SSE 6mph /  9.7km/h 6mph /  9.7km/h 94% 0.020in /  0.51mm 0.00 W/m2
01:34 46.0 °F /  7.8 °C 44.0 °F /  6.7 °C 30.0in /  1015.8hPa SSE 6mph /  9.7km/h 6mph /  9.7km/h 95% 0.020in /  0.51mm 0.00 W/m2
01:39 46.0 °F /  7.8 °C 44.0 °F /  6.7 °C 30.0in /  1015.8hPa South 6mph /  9.7km/h 6mph /  9.7km/h 95% 0.020in /  0.51mm 0.00 W/m2
01:44 46.0 °F /  7.8 °C 44.0 °F /  6.7 °C 30.0in /  1015.8hPa SSE 6mph /  9.7km/h 3mph /  4.8km/h 95% 0.020in /  0.51mm 0.00 W/m2
01:49 46.0 °F /  7.8 °C 44.0 °F /  6.7 °C 30.0in /  1015.8hPa SSE 6mph /  9.7km/h 6mph /  9.7km/h 95% 0.010in /  0.25mm 0.00 W/m2
01:54 46.0 °F /  7.8 °C 44.0 °F /  6.7 °C 30.0in /  1015.8hPa South 6mph /  9.7km/h 6mph /  9.7km/h 95% 0.020in /  0.51mm 0.00 W/m2
01:59 45.0 °F /  7.2 °C 44.0 °F /  6.7 °C 30.0in /  1015.8hPa SSE 1mph /  1.6km/h 6mph /  9.7km/h 95% 0.020in /  0.51mm 0.00 W/m2
02:04 46.0 °F /  7.8 °C 44.0 °F /  6.7 °C 30.0in /  1015.8hPa SE 7mph /  11.3km/h 8mph /  12.9km/h 95% 0.010in /  0.25mm 0.00 W/m2
02:09 45.0 °F /  7.2 °C 44.0 °F /  6.7 °C 30.0in /  1015.8hPa SSE 9mph /  14.5km/h 7mph /  11.3km/h 95% 0.020in /  0.51mm 0.00 W/m2
02:14 45.0 °F /  7.2 °C 44.0 °F /  6.7 °C 30.0in /  1015.8hPa Calm   9mph /  14.5km/h 95% 0.020in /  0.51mm 0.00 W/m2
02:19 45.0 °F /  7.2 °C 44.0 °F /  6.7 °C 30.0in /  1015.8hPa South 9mph /  14.5km/h 4mph /  6.4km/h 95% 0.030in /  0.76mm 0.00 W/m2
02:24 45.0 °F /  7.2 °C 44.0 °F /  6.7 °C 30.0in /  1015.8hPa ESE 9mph /  14.5km/h 9mph /  14.5km/h 95% 0.030in /  0.76mm 0.00 W/m2
02:29 45.0 °F /  7.2 °C 44.0 °F /  6.7 °C 30.0in /  1015.8hPa SE 6mph /  9.7km/h 6mph /  9.7km/h 95% 0.030in /  0.76mm 0.00 W/m2
02:34 45.0 °F /  7.2 °C 44.0 °F /  6.7 °C 30.0in /  1015.8hPa SSE 4mph /  6.4km/h 3mph /  4.8km/h 95% 0.040in /  1.02mm 0.00 W/m2
02:39 45.0 °F /  7.2 °C 44.0 °F /  6.7 °C 30.0in /  1015.8hPa SSE 2mph /  3.2km/h 3mph /  4.8km/h 95% 0.040in /  1.02mm 0.00 W/m2
02:44 45.0 °F /  7.2 °C 44.0 °F /  6.7 °C 30.0in /  1015.8hPa SSE 6mph /  9.7km/h 6mph /  9.7km/h 95% 0.050in /  1.27mm 0.00 W/m2
02:49 45.0 °F /  7.2 °C 44.0 °F /  6.7 °C 30.0in /  1015.8hPa SSE 11mph /  17.7km/h 7mph /  11.3km/h 95% 0.060in /  1.52mm 0.00 W/m2
02:54 45.0 °F /  7.2 °C 44.0 °F /  6.7 °C 30.0in /  1015.8hPa ESE 2mph /  3.2km/h 10mph /  16.1km/h 95% 0.060in /  1.52mm 0.00 W/m2
02:59 45.0 °F /  7.2 °C 44.0 °F /  6.7 °C 30.0in /  1015.8hPa ESE 2mph /  3.2km/h 2mph /  3.2km/h 95% 0.060in /  1.52mm 0.00 W/m2
03:04 45.0 °F /  7.2 °C 44.0 °F /  6.7 °C 30.0in /  1015.8hPa East 4mph /  6.4km/h 2mph /  3.2km/h 95% 0.070in /  1.78mm 0.00 W/m2
03:09 45.0 °F /  7.2 °C 44.0 °F /  6.7 °C 30.0in /  1015.8hPa Calm   3mph /  4.8km/h 95% 0.070in /  1.78mm 0.00 W/m2
03:14 45.0 °F /  7.2 °C 44.0 °F /  6.7 °C 30.0in /  1015.8hPa East 2mph /  3.2km/h 1mph /  1.6km/h 95% 0.090in /  2.29mm 0.00 W/m2
03:19 45.0 °F /  7.2 °C 44.0 °F /  6.7 °C 30.0in /  1015.8hPa East 2mph /  3.2km/h 2mph /  3.2km/h 95% 0.090in /  2.29mm 0.00 W/m2
03:24 45.0 °F /  7.2 °C 44.0 °F /  6.7 °C 30.0in /  1015.8hPa SSE 9mph /  14.5km/h 4mph /  6.4km/h 95% 0.100in /  2.54mm 0.00 W/m2
03:29 45.0 °F /  7.2 °C 44.0 °F /  6.7 °C 30.0in /  1015.8hPa SSE 6mph /  9.7km/h 9mph /  14.5km/h 95% 0.110in /  2.79mm 0.00 W/m2
03:34 45.0 °F /  7.2 °C 44.0 °F /  6.7 °C 30.0in /  1015.8hPa SSE 7mph /  11.3km/h 6mph /  9.7km/h 95% 0.110in /  2.79mm 0.00 W/m2
03:39 45.0 °F /  7.2 °C 44.0 °F /  6.7 °C 30.0in /  1015.8hPa SSE 7mph /  11.3km/h 7mph /  11.3km/h 95% 0.110in /  2.79mm 0.00 W/m2
03:44 45.0 °F /  7.2 °C 44.0 °F /  6.7 °C 30.0in /  1015.8hPa SE 7mph /  11.3km/h 7mph /  11.3km/h 95% 0.110in /  2.79mm 0.00 W/m2
03:49 45.0 °F /  7.2 °C 44.0 °F /  6.7 °C 30.0in /  1015.8hPa SE 4mph /  6.4km/h 2mph /  3.2km/h 95% 0.110in /  2.79mm 0.00 W/m2
03:53 45.0 °F /  7.2 °C 44.0 °F /  6.7 °C 30.0in /  1015.8hPa SE 4mph /  6.4km/h 3mph /  4.8km/h 95% 0.110in /  2.79mm 0.00 W/m2
03:59 45.0 °F /  7.2 °C 44.0 °F /  6.7 °C 30.0in /  1015.8hPa ESE 2mph /  3.2km/h 2mph /  3.2km/h 95% 0.110in /  2.79mm 0.00 W/m2
04:04 45.0 °F /  7.2 °C 44.0 °F /  6.7 °C 30.0in /  1015.8hPa ENE 6mph /  9.7km/h 2mph /  3.2km/h 95% 0.110in /  2.79mm 0.00 W/m2
04:09 45.0 °F /  7.2 °C 44.0 °F /  6.7 °C 30.0in /  1015.8hPa ENE 2mph /  3.2km/h 6mph /  9.7km/h 95% 0.100in /  2.54mm 0.00 W/m2
04:14 45.0 °F /  7.2 °C 44.0 °F /  6.7 °C 30.0in /  1015.8hPa East 2mph /  3.2km/h 2mph /  3.2km/h 95% 0.100in /  2.54mm 0.00 W/m2
04:19 45.0 °F /  7.2 °C 44.0 °F /  6.7 °C 30.0in /  1015.8hPa ESE 7mph /  11.3km/h 4mph /  6.4km/h 95% 0.080in /  2.03mm 0.00 W/m2
04:24 45.0 °F /  7.2 °C 44.0 °F /  6.7 °C 30.0in /  1015.8hPa Calm   7mph /  11.3km/h 95% 0.070in /  1.78mm 0.00 W/m2
04:29 45.0 °F /  7.2 °C 44.0 °F /  6.7 °C 30.0in /  1015.8hPa SE 2mph /  3.2km/h   95% 0.060in /  1.52mm 0.00 W/m2
04:34 45.0 °F /  7.2 °C 44.0 °F /  6.7 °C 30.0in /  1015.8hPa East 4mph /  6.4km/h 2mph /  3.2km/h 95% 0.060in /  1.52mm 0.00 W/m2
04:39 45.0 °F /  7.2 °C 43.0 °F /  6.1 °C 30.0in /  1015.8hPa ESE 2mph /  3.2km/h 3mph /  4.8km/h 95% 0.060in /  1.52mm 0.00 W/m2
04:44 45.0 °F /  7.2 °C 43.0 °F /  6.1 °C 30.0in /  1015.8hPa ESE 2mph /  3.2km/h 2mph /  3.2km/h 95% 0.050in /  1.27mm 0.00 W/m2
04:49 45.0 °F /  7.2 °C 43.0 °F /  6.1 °C 30.0in /  1015.8hPa SE 4mph /  6.4km/h 1mph /  1.6km/h 95% 0.060in /  1.52mm 0.00 W/m2
04:54 45.0 °F /  7.2 °C 43.0 °F /  6.1 °C 30.0in /  1015.8hPa ESE 4mph /  6.4km/h 3mph /  4.8km/h 95% 0.060in /  1.52mm 0.00 W/m2
04:59 44.0 °F /  6.7 °C 43.0 °F /  6.1 °C 30.0in /  1015.8hPa SSE 7mph /  11.3km/h 3mph /  4.8km/h 95% 0.060in /  1.52mm 0.00 W/m2
05:04 44.0 °F /  6.7 °C 43.0 °F /  6.1 °C 30.0in /  1015.8hPa SE 4mph /  6.4km/h 7mph /  11.3km/h 95% 0.050in /  1.27mm 0.00 W/m2
05:09 44.0 °F /  6.7 °C 43.0 °F /  6.1 °C 30.0in /  1015.8hPa SE 1mph /  1.6km/h 3mph /  4.8km/h 95% 0.060in /  1.52mm 0.00 W/m2
05:14 44.0 °F /  6.7 °C 43.0 °F /  6.1 °C 30.0in /  1015.8hPa ESE 2mph /  3.2km/h 1mph /  1.6km/h 95% 0.060in /  1.52mm 0.00 W/m2
05:19 44.0 °F /  6.7 °C 43.0 °F /  6.1 °C 30.0in /  1015.8hPa ESE 4mph /  6.4km/h 2mph /  3.2km/h 94% 0.060in /  1.52mm 0.00 W/m2
05:24 44.0 °F /  6.7 °C 43.0 °F /  6.1 °C 30.0in /  1015.8hPa SE 6mph /  9.7km/h 3mph /  4.8km/h 95% 0.060in /  1.52mm 0.00 W/m2
05:29 44.0 °F /  6.7 °C 43.0 °F /  6.1 °C 30.0in /  1015.8hPa South 7mph /  11.3km/h 6mph /  9.7km/h 95% 0.070in /  1.78mm 0.00 W/m2
05:34 44.0 °F /  6.7 °C 43.0 °F /  6.1 °C 30.0in /  1015.8hPa ENE 4mph /  6.4km/h 7mph /  11.3km/h 95% 0.060in /  1.52mm 0.00 W/m2
05:39 44.0 °F /  6.7 °C 43.0 °F /  6.1 °C 30.0in /  1015.8hPa East 2mph /  3.2km/h 3mph /  4.8km/h 95% 0.060in /  1.52mm 0.00 W/m2
05:44 44.0 °F /  6.7 °C 43.0 °F /  6.1 °C 30.0in /  1015.8hPa SSE 6mph /  9.7km/h 2mph /  3.2km/h 95% 0.060in /  1.52mm 0.00 W/m2
05:49 44.0 °F /  6.7 °C 43.0 °F /  6.1 °C 30.0in /  1015.8hPa ESE 2mph /  3.2km/h 6mph /  9.7km/h 95% 0.060in /  1.52mm 0.00 W/m2
05:54 44.0 °F /  6.7 °C 43.0 °F /  6.1 °C 30.0in /  1015.8hPa SE 6mph /  9.7km/h 2mph /  3.2km/h 95% 0.070in /  1.78mm 0.00 W/m2
05:59 44.0 °F /  6.7 °C 43.0 °F /  6.1 °C 30.0in /  1015.8hPa SE 4mph /  6.4km/h 6mph /  9.7km/h 95% 0.070in /  1.78mm 0.00 W/m2
06:04 44.0 °F /  6.7 °C 43.0 °F /  6.1 °C 30.0in /  1015.8hPa SSE 7mph /  11.3km/h 6mph /  9.7km/h 95% 0.090in /  2.29mm 0.00 W/m2
06:09 44.0 °F /  6.7 °C 43.0 °F /  6.1 °C 30.0in /  1015.8hPa South 9mph /  14.5km/h 9mph /  14.5km/h 95% 0.090in /  2.29mm 0.00 W/m2
06:14 44.0 °F /  6.7 °C 43.0 °F /  6.1 °C 30.0in /  1015.8hPa ESE 5mph /  8km/h 7mph /  11.3km/h 95% 0.100in /  2.54mm 0.00 W/m2
06:19 44.0 °F /  6.7 °C 43.0 °F /  6.1 °C 30.0in /  1015.8hPa SE 9mph /  14.5km/h 6mph /  9.7km/h 95% 0.100in /  2.54mm 0.00 W/m2
06:24 44.0 °F /  6.7 °C 43.0 °F /  6.1 °C 30.0in /  1015.8hPa SE 6mph /  9.7km/h 9mph /  14.5km/h 95% 0.090in /  2.29mm 0.00 W/m2
06:29 44.0 °F /  6.7 °C 43.0 °F /  6.1 °C 30.0in /  1015.8hPa SSE 6mph /  9.7km/h 6mph /  9.7km/h 95% 0.100in /  2.54mm 0.00 W/m2
06:34 44.0 °F /  6.7 °C 43.0 °F /  6.1 °C 30.0in /  1015.8hPa SSE 7mph /  11.3km/h 6mph /  9.7km/h 95% 0.100in /  2.54mm 0.00 W/m2
06:39 44.0 °F /  6.7 °C 43.0 °F /  6.1 °C 30.0in /  1015.8hPa SSE 11mph /  17.7km/h 7mph /  11.3km/h 95% 0.100in /  2.54mm 0.00 W/m2
06:44 44.0 °F /  6.7 °C 43.0 °F /  6.1 °C 30.0in /  1015.8hPa SSW 7mph /  11.3km/h 10mph /  16.1km/h 95% 0.110in /  2.79mm 0.00 W/m2
06:49 44.0 °F /  6.7 °C 43.0 °F /  6.1 °C 30.0in /  1015.8hPa South 11mph /  17.7km/h 10mph /  16.1km/h 95% 0.100in /  2.54mm 0.00 W/m2
06:54 44.0 °F /  6.7 °C 43.0 °F /  6.1 °C 30.0in /  1015.8hPa SSE 6mph /  9.7km/h 10mph /  16.1km/h 95% 0.100in /  2.54mm 0.00 W/m2
06:59 44.0 °F /  6.7 °C 43.0 °F /  6.1 °C 30.0in /  1015.8hPa Calm   6mph /  9.7km/h 95% 0.100in /  2.54mm 0.00 W/m2
07:04 44.0 °F /  6.7 °C 43.0 °F /  6.1 °C 30.0in /  1015.8hPa East 4mph /  6.4km/h 1mph /  1.6km/h 95% 0.100in /  2.54mm 0.00 W/m2
07:09 44.0 °F /  6.7 °C 43.0 °F /  6.1 °C 30.0in /  1015.8hPa ESE 6mph /  9.7km/h 3mph /  4.8km/h 95% 0.100in /  2.54mm 0.00 W/m2
07:14 44.0 °F /  6.7 °C 43.0 °F /  6.1 °C 30.0in /  1015.8hPa Calm   6mph /  9.7km/h 95% 0.110in /  2.79mm 0.00 W/m2
07:19 44.0 °F /  6.7 °C 43.0 °F /  6.1 °C 30.0in /  1015.8hPa SSE 4mph /  6.4km/h 1mph /  1.6km/h 95% 0.120in /  3.05mm 0.00 W/m2
07:24 44.0 °F /  6.7 °C 43.0 °F /  6.1 °C 30.0in /  1015.8hPa SSE 9mph /  14.5km/h 6mph /  9.7km/h 95% 0.150in /  3.81mm 0.00 W/m2
07:29 44.0 °F /  6.7 °C 43.0 °F /  6.1 °C 30.0in /  1015.8hPa Calm   9mph /  14.5km/h 95% 0.190in /  4.83mm 0.00 W/m2
07:34 44.0 °F /  6.7 °C 43.0 °F /  6.1 °C 30.0in /  1015.8hPa Calm     95% 0.230in /  5.84mm 0.00 W/m2
07:39 44.0 °F /  6.7 °C 43.0 °F /  6.1 °C 30.0in /  1015.8hPa Calm     95% 0.240in /  6.1mm 0.00 W/m2
07:44 44.0 °F /  6.7 °C 43.0 °F /  6.1 °C 30.0in /  1015.8hPa Calm     95% 0.240in /  6.1mm 0.00 W/m2
07:49 44.0 °F /  6.7 °C 43.0 °F /  6.1 °C 30.0in /  1015.8hPa SE 4mph /  6.4km/h 1mph /  1.6km/h 95% 0.240in /  6.1mm 0.00 W/m2
07:54 44.0 °F /  6.7 °C 43.0 °F /  6.1 °C 30.0in /  1015.8hPa Calm   3mph /  4.8km/h 95% 0.250in /  6.35mm 5.00 W/m2
07:59 44.0 °F /  6.7 °C 43.0 °F /  6.1 °C 30.0in /  1015.8hPa Calm     95% 0.240in /  6.1mm 5.00 W/m2
08:04 44.0 °F /  6.7 °C 43.0 °F /  6.1 °C 30.0in /  1015.8hPa Calm     95% 0.230in /  5.84mm 7.00 W/m2
08:09 44.0 °F /  6.7 °C 43.0 °F /  6.1 °C 30.0in /  1015.8hPa Calm     95% 0.220in /  5.59mm 7.00 W/m2
08:14 44.0 °F /  6.7 °C 43.0 °F /  6.1 °C 30.0in /  1015.8hPa Calm     95% 0.200in /  5.08mm 7.00 W/m2
08:19 44.0 °F /  6.7 °C 43.0 °F /  6.1 °C 30.0in /  1015.8hPa SE 2mph /  3.2km/h 1mph /  1.6km/h 95% 0.200in /  5.08mm 0.00 W/m2
08:24 44.0 °F /  6.7 °C 43.0 °F /  6.1 °C 30.0in /  1015.8hPa Calm   2mph /  3.2km/h 95% 0.190in /  4.83mm 9.00 W/m2
08:29 44.0 °F /  6.7 °C 43.0 °F /  6.1 °C 30.0in /  1015.8hPa Calm     95% 0.160in /  4.06mm 9.00 W/m2
08:34 44.0 °F /  6.7 °C 43.0 °F /  6.1 °C 30.0in /  1015.8hPa Calm     95% 0.130in /  3.3mm 11.00 W/m2
08:39 44.0 °F /  6.7 °C 43.0 °F /  6.1 °C 30.0in /  1015.8hPa Calm     95% 0.090in /  2.29mm 21.00 W/m2
08:44 44.0 °F /  6.7 °C 43.0 °F /  6.1 °C 30.0in /  1015.8hPa Calm     95% 0.090in /  2.29mm 19.00 W/m2
08:49 44.0 °F /  6.7 °C 42.0 °F /  5.6 °C 30.0in /  1015.8hPa Calm     95% 0.090in /  2.29mm 26.00 W/m2
08:54 44.0 °F /  6.7 °C 42.0 °F /  5.6 °C 30.0in /  1015.8hPa Calm     95% 0.080in /  2.03mm 26.00 W/m2
08:59 43.0 °F /  6.1 °C 42.0 °F /  5.6 °C 30.0in /  1015.8hPa Calm     95% 0.070in /  1.78mm 21.00 W/m2
09:04 43.0 °F /  6.1 °C 42.0 °F /  5.6 °C 30.0in /  1015.8hPa Calm     95% 0.060in /  1.52mm 26.00 W/m2
09:09 43.0 °F /  6.1 °C 41.0 °F /  5 °C 30.1in /  1019.2hPa Calm     94% 0.060in /  1.52mm 51.00 W/m2
09:14 43.0 °F /  6.1 °C 41.0 °F /  5 °C 30.1in /  1019.2hPa Calm     94% 0.050in /  1.27mm 77.00 W/m2
09:19 43.0 °F /  6.1 °C 41.0 °F /  5 °C 30.1in /  1019.2hPa Calm     95% 0.050in /  1.27mm 84.00 W/m2
09:24 43.0 °F /  6.1 °C 41.0 °F /  5 °C 30.1in /  1019.2hPa Calm     95% 0.040in /  1.02mm 84.00 W/m2
09:29 43.0 °F /  6.1 °C 41.0 °F /  5 °C 30.1in /  1019.2hPa Calm     95% 0.030in /  0.76mm 81.00 W/m2
09:34 43.0 °F /  6.1 °C 41.0 °F /  5 °C 30.1in /  1019.2hPa Calm     95% 0.020in /  0.51mm 84.00 W/m2
09:39 43.0 °F /  6.1 °C 41.0 °F /  5 °C 30.1in /  1019.2hPa Calm     95% 0.010in /  0.25mm 81.00 W/m2
09:44 43.0 °F /  6.1 °C 42.0 °F /  5.6 °C 30.1in /  1019.2hPa SE 2mph /  3.2km/h   95% 0.010in /  0.25mm 63.00 W/m2
09:49 43.0 °F /  6.1 °C 42.0 °F /  5.6 °C 30.1in /  1019.2hPa SE 2mph /  3.2km/h 2mph /  3.2km/h 95% 0.000in /  0mm 49.00 W/m2
09:54 43.0 °F /  6.1 °C 42.0 °F /  5.6 °C 30.1in /  1019.2hPa Calm   2mph /  3.2km/h 95% 0.000in /  0mm 51.00 W/m2
09:59 43.0 °F /  6.1 °C 42.0 °F /  5.6 °C 30.1in /  1019.2hPa Calm     95% 0.000in /  0mm 67.00 W/m2
10:04 43.0 °F /  6.1 °C 42.0 °F /  5.6 °C 30.1in /  1019.2hPa Calm     95% 0.000in /  0mm 104.00 W/m2
10:09 43.0 °F /  6.1 °C 42.0 °F /  5.6 °C 30.1in /  1019.2hPa Calm     95% 0.000in /  0mm 125.00 W/m2
10:14 43.0 °F /  6.1 °C 42.0 °F /  5.6 °C 30.1in /  1019.2hPa SE 2mph /  3.2km/h   95% 0.000in /  0mm 111.00 W/m2
10:19 43.0 °F /  6.1 °C 42.0 °F /  5.6 °C 30.1in /  1019.2hPa Calm   2mph /  3.2km/h 95% 0.000in /  0mm 109.00 W/m2
10:24 43.0 °F /  6.1 °C 42.0 °F /  5.6 °C 30.1in /  1019.2hPa Calm     95% 0.000in /  0mm 114.00 W/m2
10:29 43.0 °F /  6.1 °C 42.0 °F /  5.6 °C 30.1in /  1019.2hPa Calm     95% 0.000in /  0mm 160.00 W/m2
10:34 43.0 °F /  6.1 °C 42.0 °F /  5.6 °C 30.1in /  1019.2hPa SE 4mph /  6.4km/h 1mph /  1.6km/h 95% 0.000in /  0mm 267.00 W/m2
10:39 43.0 °F /  6.1 °C 42.0 °F /  5.6 °C 30.1in /  1019.2hPa ESE 6mph /  9.7km/h 3mph /  4.8km/h 95% 0.000in /  0mm 543.00 W/m2
10:44 44.0 °F /  6.7 °C 42.0 °F /  5.6 °C 30.1in /  1019.2hPa East 2mph /  3.2km/h 6mph /  9.7km/h 95% 0.000in /  0mm 577.00 W/m2
10:49 44.0 °F /  6.7 °C 43.0 °F /  6.1 °C 30.1in /  1019.2hPa East 2mph /  3.2km/h 2mph /  3.2km/h 95% 0.000in /  0mm 200.00 W/m2
10:54 44.0 °F /  6.7 °C 43.0 °F /  6.1 °C 30.1in /  1019.2hPa Calm   2mph /  3.2km/h 95% 0.000in /  0mm 459.00 W/m2
10:59 44.0 °F /  6.7 °C 43.0 °F /  6.1 °C 30.1in /  1019.2hPa Calm     95% 0.000in /  0mm 459.00 W/m2
11:04 44.0 °F /  6.7 °C 43.0 °F /  6.1 °C 30.1in /  1019.2hPa East 2mph /  3.2km/h   95% 0.000in /  0mm 478.00 W/m2
11:09 44.0 °F /  6.7 °C 43.0 °F /  6.1 °C 30.1in /  1019.2hPa SE 4mph /  6.4km/h 3mph /  4.8km/h 95% 0.000in /  0mm 527.00 W/m2
11:14 44.0 °F /  6.7 °C 43.0 °F /  6.1 °C 30.1in /  1019.2hPa SSE 2mph /  3.2km/h 3mph /  4.8km/h 95% 0.000in /  0mm 534.00 W/m2
11:19 45.0 °F /  7.2 °C 43.0 °F /  6.1 °C 30.0in /  1015.8hPa Calm   2mph /  3.2km/h 95% 0.000in /  0mm 631.00 W/m2
11:24 45.0 °F /  7.2 °C 44.0 °F /  6.7 °C 30.0in /  1015.8hPa SE 4mph /  6.4km/h 2mph /  3.2km/h 95% 0.000in /  0mm 640.00 W/m2
11:29 45.0 °F /  7.2 °C 44.0 °F /  6.7 °C 30.0in /  1015.8hPa SSE 4mph /  6.4km/h 3mph /  4.8km/h 95% 0.000in /  0mm 613.00 W/m2
11:34 46.0 °F /  7.8 °C 44.0 °F /  6.7 °C 30.0in /  1015.8hPa SSE 2mph /  3.2km/h 3mph /  4.8km/h 95% 0.000in /  0mm 613.00 W/m2
11:39 46.0 °F /  7.8 °C 44.0 °F /  6.7 °C 30.0in /  1015.8hPa SSE 2mph /  3.2km/h 2mph /  3.2km/h 95% 0.000in /  0mm 216.00 W/m2
11:44 46.0 °F /  7.8 °C 44.0 °F /  6.7 °C 30.0in /  1015.8hPa Calm   2mph /  3.2km/h 95% 0.000in /  0mm 227.00 W/m2
11:49 46.0 °F /  7.8 °C 44.0 °F /  6.7 °C 30.0in /  1015.8hPa Calm     94% 0.000in /  0mm 197.00 W/m2
11:54 46.0 °F /  7.8 °C 44.0 °F /  6.7 °C 30.0in /  1015.8hPa SSE 2mph /  3.2km/h 2mph /  3.2km/h 94% 0.000in /  0mm 81.00 W/m2
11:59 46.0 °F /  7.8 °C 44.0 °F /  6.7 °C 30.0in /  1015.8hPa Calm     94% 0.000in /  0mm 74.00 W/m2
12:04 46.0 °F /  7.8 °C 44.0 °F /  6.7 °C 30.0in /  1015.8hPa SSE 2mph /  3.2km/h   93% 0.000in /  0mm 91.00 W/m2
12:09 46.0 °F /  7.8 °C 44.0 °F /  6.7 °C 30.0in /  1015.8hPa Calm   2mph /  3.2km/h 93% 0.000in /  0mm 116.00 W/m2
12:14 46.0 °F /  7.8 °C 44.0 °F /  6.7 °C 30.0in /  1015.8hPa Calm     93% 0.000in /  0mm 128.00 W/m2
12:19 46.0 °F /  7.8 °C 44.0 °F /  6.7 °C 30.0in /  1015.8hPa Calm     93% 0.000in /  0mm 130.00 W/m2
12:24 46.0 °F /  7.8 °C 44.0 °F /  6.7 °C 30.0in /  1015.8hPa Calm     92% 0.000in /  0mm 125.00 W/m2
12:29 46.0 °F /  7.8 °C 44.0 °F /  6.7 °C 30.0in /  1015.8hPa Calm     92% 0.000in /  0mm 120.00 W/m2
12:34 46.0 °F /  7.8 °C 44.0 °F /  6.7 °C 30.0in /  1015.8hPa South 2mph /  3.2km/h   92% 0.000in /  0mm 130.00 W/m2
12:39 46.0 °F /  7.8 °C 44.0 °F /  6.7 °C 30.0in /  1015.8hPa South 2mph /  3.2km/h 2mph /  3.2km/h 92% 0.000in /  0mm 139.00 W/m2
12:44 46.0 °F /  7.8 °C 44.0 °F /  6.7 °C 30.0in /  1015.8hPa Calm     91% 0.000in /  0mm 125.00 W/m2
12:49 46.0 °F /  7.8 °C 44.0 °F /  6.7 °C 30.0in /  1015.8hPa South 2mph /  3.2km/h   91% 0.000in /  0mm 123.00 W/m2
12:54 46.0 °F /  7.8 °C 44.0 °F /  6.7 °C 30.0in /  1015.8hPa SSW 6mph /  9.7km/h 2mph /  3.2km/h 91% 0.000in /  0mm 123.00 W/m2
12:59 46.0 °F /  7.8 °C 44.0 °F /  6.7 °C 30.0in /  1015.8hPa Calm   6mph /  9.7km/h 91% 0.000in /  0mm 100.00 W/m2
13:04 46.0 °F /  7.8 °C 44.0 °F /  6.7 °C 30.0in /  1015.8hPa ESE 4mph /  6.4km/h 1mph /  1.6km/h 91% 0.000in /  0mm 114.00 W/m2
13:08 46.0 °F /  7.8 °C 44.0 °F /  6.7 °C 30.0in /  1015.8hPa SSE 6mph /  9.7km/h 4mph /  6.4km/h 91% 0.000in /  0mm 113.00 W/m2
13:14 46.0 °F /  7.8 °C 43.0 °F /  6.1 °C 30.0in /  1015.8hPa SSE 4mph /  6.4km/h 6mph /  9.7km/h 90% 0.000in /  0mm 109.00 W/m2
13:19 46.0 °F /  7.8 °C 43.0 °F /  6.1 °C 30.0in /  1015.8hPa SSE 4mph /  6.4km/h 3mph /  4.8km/h 90% 0.000in /  0mm 116.00 W/m2
13:24 46.0 °F /  7.8 °C 43.0 °F /  6.1 °C 30.0in /  1015.8hPa South 6mph /  9.7km/h 3mph /  4.8km/h 90% 0.000in /  0mm 120.00 W/m2
13:29 46.0 °F /  7.8 °C 43.0 °F /  6.1 °C 30.1in /  1019.2hPa South 7mph /  11.3km/h 6mph /  9.7km/h 90% 0.000in /  0mm 98.00 W/m2
13:34 46.0 °F /  7.8 °C 43.0 °F /  6.1 °C 30.1in /  1019.2hPa South 7mph /  11.3km/h 7mph /  11.3km/h 90% 0.000in /  0mm 90.00 W/m2
13:39 46.0 °F /  7.8 °C 43.0 °F /  6.1 °C 30.1in /  1019.2hPa South 6mph /  9.7km/h 6mph /  9.7km/h 90% 0.000in /  0mm 100.00 W/m2
13:44 46.0 °F /  7.8 °C 43.0 °F /  6.1 °C 30.1in /  1019.2hPa SSW 1mph /  1.6km/h 6mph /  9.7km/h 89% 0.000in /  0mm 116.00 W/m2
13:49 46.0 °F /  7.8 °C 43.0 °F /  6.1 °C 30.1in /  1019.2hPa Calm     89% 0.000in /  0mm 146.00 W/m2
13:54 46.0 °F /  7.8 °C 43.0 °F /  6.1 °C 30.1in /  1019.2hPa SSW 4mph /  6.4km/h 2mph /  3.2km/h 89% 0.000in /  0mm 165.00 W/m2
13:59 46.0 °F /  7.8 °C 43.0 °F /  6.1 °C 30.1in /  1019.2hPa Calm   3mph /  4.8km/h 89% 0.000in /  0mm 165.00 W/m2
14:04 46.0 °F /  7.8 °C 43.0 °F /  6.1 °C 30.1in /  1019.2hPa Calm     89% 0.000in /  0mm 165.00 W/m2
14:09 46.0 °F /  7.8 °C 43.0 °F /  6.1 °C 30.1in /  1019.2hPa SSW 2mph /  3.2km/h   89% 0.000in /  0mm 162.00 W/m2
14:14 46.0 °F /  7.8 °C 43.0 °F /  6.1 °C 30.1in /  1019.2hPa Calm   2mph /  3.2km/h 88% 0.000in /  0mm 118.00 W/m2
14:19 46.0 °F /  7.8 °C 43.0 °F /  6.1 °C 30.1in /  1019.2hPa Calm     88% 0.000in /  0mm 120.00 W/m2
14:24 46.0 °F /  7.8 °C 43.0 °F /  6.1 °C 30.1in /  1019.2hPa SSW 2mph /  3.2km/h 1mph /  1.6km/h 88% 0.000in /  0mm 309.00 W/m2
14:29 46.0 °F /  7.8 °C 43.0 °F /  6.1 °C 30.1in /  1019.2hPa SSW 2mph /  3.2km/h 2mph /  3.2km/h 88% 0.000in /  0mm 309.00 W/m2
14:34 46.0 °F /  7.8 °C 43.0 °F /  6.1 °C 30.1in /  1019.2hPa Calm     88% 0.000in /  0mm 113.00 W/m2
14:39 47.0 °F /  8.3 °C 43.0 °F /  6.1 °C 30.1in /  1019.2hPa Calm     88% 0.000in /  0mm 130.00 W/m2
14:44 47.0 °F /  8.3 °C 44.0 °F /  6.7 °C 30.1in /  1019.2hPa Calm     89% 0.000in /  0mm 374.00 W/m2
14:49 47.0 °F /  8.3 °C 44.0 °F /  6.7 °C 30.1in /  1019.2hPa South 6mph /  9.7km/h 4mph /  6.4km/h 89% 0.000in /  0mm 374.00 W/m2
14:54 47.0 °F /  8.3 °C 44.0 °F /  6.7 °C 30.1in /  1019.2hPa SSW 6mph /  9.7km/h 6mph /  9.7km/h 89% 0.000in /  0mm 155.00 W/m2
14:59 47.0 °F /  8.3 °C 43.0 °F /  6.1 °C 30.1in /  1019.2hPa Calm   6mph /  9.7km/h 87% 0.000in /  0mm 295.00 W/m2
15:04 47.0 °F /  8.3 °C 43.0 °F /  6.1 °C 30.1in /  1019.2hPa South 7mph /  11.3km/h 4mph /  6.4km/h 86% 0.000in /  0mm 253.00 W/m2
15:09 47.0 °F /  8.3 °C 43.0 °F /  6.1 °C 30.1in /  1019.2hPa South 6mph /  9.7km/h 7mph /  11.3km/h 87% 0.000in /  0mm 221.00 W/m2
15:14 47.0 °F /  8.3 °C 43.0 °F /  6.1 °C 30.1in /  1019.2hPa SSW 6mph /  9.7km/h 6mph /  9.7km/h 86% 0.000in /  0mm 163.00 W/m2
15:19 48.0 °F /  8.9 °C 44.0 °F /  6.7 °C 30.1in /  1019.2hPa South 6mph /  9.7km/h 6mph /  9.7km/h 86% 0.000in /  0mm 107.00 W/m2
15:24 48.0 °F /  8.9 °C 44.0 °F /  6.7 °C 30.1in /  1019.2hPa South 4mph /  6.4km/h 3mph /  4.8km/h 86% 0.000in /  0mm 167.00 W/m2
15:29 48.0 °F /  8.9 °C 44.0 °F /  6.7 °C 30.1in /  1019.2hPa South 4mph /  6.4km/h 3mph /  4.8km/h 86% 0.000in /  0mm 149.00 W/m2
15:34 48.0 °F /  8.9 °C 44.0 °F /  6.7 °C 30.1in /  1019.2hPa South 4mph /  6.4km/h 3mph /  4.8km/h 86% 0.000in /  0mm 79.00 W/m2
15:39 48.0 °F /  8.9 °C 43.0 °F /  6.1 °C 30.1in /  1019.2hPa South 4mph /  6.4km/h 3mph /  4.8km/h 85% 0.000in /  0mm 63.00 W/m2
15:44 47.0 °F /  8.3 °C 43.0 °F /  6.1 °C 30.1in /  1019.2hPa South 4mph /  6.4km/h 2mph /  3.2km/h 86% 0.000in /  0mm 40.00 W/m2
15:49 47.0 °F /  8.3 °C 43.0 °F /  6.1 °C 30.1in /  1019.2hPa Calm   3mph /  4.8km/h 85% 0.000in /  0mm 33.00 W/m2
15:54 47.0 °F /  8.3 °C 42.0 °F /  5.6 °C 30.1in /  1019.2hPa South 4mph /  6.4km/h 1mph /  1.6km/h 83% 0.000in /  0mm 30.00 W/m2
15:59 47.0 °F /  8.3 °C 42.0 °F /  5.6 °C 30.1in /  1019.2hPa South 2mph /  3.2km/h 3mph /  4.8km/h 83% 0.000in /  0mm 26.00 W/m2
16:04 47.0 °F /  8.3 °C 42.0 °F /  5.6 °C 30.1in /  1019.2hPa Calm   2mph /  3.2km/h 83% 0.000in /  0mm 23.00 W/m2
16:09 47.0 °F /  8.3 °C 42.0 °F /  5.6 °C 30.1in /  1019.2hPa Calm     83% 0.000in /  0mm 21.00 W/m2
16:14 46.0 °F /  7.8 °C 42.0 °F /  5.6 °C 30.1in /  1019.2hPa Calm     84% 0.000in /  0mm 19.00 W/m2
16:19 46.0 °F /  7.8 °C 42.0 °F /  5.6 °C 30.1in /  1019.2hPa Calm     84% 0.000in /  0mm 16.00 W/m2
16:24 46.0 °F /  7.8 °C 42.0 °F /  5.6 °C 30.1in /  1019.2hPa Calm     85% 0.000in /  0mm 14.00 W/m2
16:29 46.0 °F /  7.8 °C 42.0 °F /  5.6 °C 30.1in /  1019.2hPa Calm     85% 0.000in /  0mm 11.00 W/m2
16:34 46.0 °F /  7.8 °C 42.0 °F /  5.6 °C 30.1in /  1019.2hPa Calm     85% 0.000in /  0mm 7.00 W/m2
16:39 46.0 °F /  7.8 °C 42.0 °F /  5.6 °C 30.1in /  1019.2hPa Calm     86% 0.000in /  0mm 5.00 W/m2
16:44 46.0 °F /  7.8 °C 42.0 °F /  5.6 °C 30.1in /  1019.2hPa Calm     86% 0.000in /  0mm 0.00 W/m2
16:49 45.0 °F /  7.2 °C 41.0 °F /  5 °C 30.1in /  1019.2hPa Calm     86% 0.000in /  0mm 0.00 W/m2
16:54 45.0 °F /  7.2 °C 41.0 °F /  5 °C 30.1in /  1019.2hPa Calm     86% 0.000in /  0mm 0.00 W/m2
16:59 45.0 °F /  7.2 °C 41.0 °F /  5 °C 30.1in /  1019.2hPa Calm     86% 0.000in /  0mm 0.00 W/m2
17:04 45.0 °F /  7.2 °C 41.0 °F /  5 °C 30.1in /  1019.2hPa Calm     86% 0.000in /  0mm 0.00 W/m2
17:09 44.0 °F /  6.7 °C 40.0 °F /  4.4 °C 30.1in /  1019.2hPa Calm     86% 0.000in /  0mm 0.00 W/m2
17:14 44.0 °F /  6.7 °C 40.0 °F /  4.4 °C 30.1in /  1019.2hPa Calm     86% 0.000in /  0mm 0.00 W/m2
17:19 44.0 °F /  6.7 °C 40.0 °F /  4.4 °C 30.1in /  1019.2hPa Calm     86% 0.000in /  0mm 0.00 W/m2
17:24 43.0 °F /  6.1 °C 40.0 °F /  4.4 °C 30.1in /  1019.2hPa Calm     87% 0.000in /  0mm 0.00 W/m2
17:29 43.0 °F /  6.1 °C 39.0 °F /  3.9 °C 30.1in /  1019.2hPa Calm     87% 0.000in /  0mm 0.00 W/m2
17:34 43.0 °F /  6.1 °C 39.0 °F /  3.9 °C 30.1in /  1019.2hPa Calm     87% 0.000in /  0mm 0.00 W/m2
17:39 43.0 °F /  6.1 °C 39.0 °F /  3.9 °C 30.1in /  1019.2hPa Calm     87% 0.000in /  0mm 0.00 W/m2
17:44 42.0 °F /  5.6 °C 39.0 °F /  3.9 °C 30.1in /  1019.2hPa Calm     87% 0.000in /  0mm 0.00 W/m2
17:49 42.0 °F /  5.6 °C 39.0 °F /  3.9 °C 30.1in /  1019.2hPa Calm     88% 0.000in /  0mm 0.00 W/m2
17:54 42.0 °F /  5.6 °C 39.0 °F /  3.9 °C 30.1in /  1019.2hPa Calm     88% 0.000in /  0mm 0.00 W/m2
17:59 42.0 °F /  5.6 °C 38.0 °F /  3.3 °C 30.1in /  1019.2hPa Calm     88% 0.000in /  0mm 0.00 W/m2
18:04 41.0 °F /  5 °C 38.0 °F /  3.3 °C 30.1in /  1019.2hPa Calm     88% 0.000in /  0mm 0.00 W/m2
18:09 41.0 °F /  5 °C 38.0 °F /  3.3 °C 30.1in /  1019.2hPa Calm     89% 0.000in /  0mm 0.00 W/m2
18:14 41.0 °F /  5 °C 38.0 °F /  3.3 °C 30.1in /  1019.2hPa Calm     89% 0.000in /  0mm 0.00 W/m2
18:19 41.0 °F /  5 °C 38.0 °F /  3.3 °C 30.1in /  1019.2hPa Calm     89% 0.000in /  0mm 0.00 W/m2
18:24 41.0 °F /  5 °C 38.0 °F /  3.3 °C 30.1in /  1019.2hPa Calm     89% 0.000in /  0mm 0.00 W/m2
18:29 40.0 °F /  4.4 °C 37.0 °F /  2.8 °C 30.1in /  1019.2hPa Calm     89% 0.000in /  0mm 0.00 W/m2
18:34 40.0 °F /  4.4 °C 37.0 °F /  2.8 °C 30.1in /  1019.2hPa Calm     90% 0.000in /  0mm 0.00 W/m2
18:39 40.0 °F /  4.4 °C 37.0 °F /  2.8 °C 30.1in /  1019.2hPa Calm     90% 0.000in /  0mm 0.00 W/m2
18:44 40.0 °F /  4.4 °C 37.0 °F /  2.8 °C 30.1in /  1019.2hPa Calm     90% 0.000in /  0mm 0.00 W/m2
18:49 40.0 °F /  4.4 °C 37.0 °F /  2.8 °C 30.1in /  1019.2hPa Calm     90% 0.000in /  0mm 0.00 W/m2
18:54 40.0 °F /  4.4 °C 37.0 °F /  2.8 °C 30.1in /  1019.2hPa Calm     90% 0.000in /  0mm 0.00 W/m2
18:59 40.0 °F /  4.4 °C 37.0 °F /  2.8 °C 30.1in /  1019.2hPa Calm     91% 0.000in /  0mm 0.00 W/m2
19:04 39.0 °F /  3.9 °C 37.0 °F /  2.8 °C 30.1in /  1019.2hPa Calm     91% 0.000in /  0mm 0.00 W/m2
19:09 39.0 °F /  3.9 °C 37.0 °F /  2.8 °C 30.1in /  1019.2hPa Calm     91% 0.000in /  0mm 0.00 W/m2
19:14 39.0 °F /  3.9 °C 37.0 °F /  2.8 °C 30.1in /  1019.2hPa Calm     91% 0.000in /  0mm 0.00 W/m2
19:19 39.0 °F /  3.9 °C 37.0 °F /  2.8 °C 30.1in /  1019.2hPa Calm     91% 0.000in /  0mm 0.00 W/m2
19:24 39.0 °F /  3.9 °C 37.0 °F /  2.8 °C 30.1in /  1019.2hPa Calm     91% 0.000in /  0mm 0.00 W/m2
19:29 39.0 °F /  3.9 °C 37.0 °F /  2.8 °C 30.1in /  1019.2hPa Calm     91% 0.000in /  0mm 0.00 W/m2
19:34 39.0 °F /  3.9 °C 36.0 °F /  2.2 °C 30.1in /  1019.2hPa Calm     91% 0.000in /  0mm 0.00 W/m2
19:39 39.0 °F /  3.9 °C 36.0 °F /  2.2 °C 30.1in /  1019.2hPa Calm     91% 0.000in /  0mm 0.00 W/m2
19:44 39.0 °F /  3.9 °C 37.0 °F /  2.8 °C 30.1in /  1019.2hPa Calm     92% 0.000in /  0mm 0.00 W/m2
19:49 39.0 °F /  3.9 °C 37.0 °F /  2.8 °C 30.1in /  1019.2hPa Calm     92% 0.000in /  0mm 0.00 W/m2
19:54 39.0 °F /  3.9 °C 36.0 °F /  2.2 °C 30.1in /  1019.2hPa Calm     92% 0.000in /  0mm 0.00 W/m2
19:59 38.0 °F /  3.3 °C 36.0 °F /  2.2 °C 30.2in /  1022.6hPa Calm     92% 0.000in /  0mm 0.00 W/m2
20:04 38.0 °F /  3.3 °C 36.0 °F /  2.2 °C 30.2in /  1022.6hPa Calm     92% 0.000in /  0mm 0.00 W/m2
20:09 38.0 °F /  3.3 °C 36.0 °F /  2.2 °C 30.2in /  1022.6hPa Calm     92% 0.000in /  0mm 0.00 W/m2
20:14 38.0 °F /  3.3 °C 36.0 °F /  2.2 °C 30.2in /  1022.6hPa Calm     92% 0.000in /  0mm 0.00 W/m2
20:19 38.0 °F /  3.3 °C 36.0 °F /  2.2 °C 30.2in /  1022.6hPa Calm     92% 0.000in /  0mm 0.00 W/m2
20:24 38.0 °F /  3.3 °C 36.0 °F /  2.2 °C 30.2in /  1022.6hPa Calm     92% 0.000in /  0mm 0.00 W/m2
20:29 38.0 °F /  3.3 °C 36.0 °F /  2.2 °C 30.2in /  1022.6hPa Calm     92% 0.000in /  0mm 0.00 W/m2
20:34 38.0 °F /  3.3 °C 36.0 °F /  2.2 °C 30.2in /  1022.6hPa Calm     92% 0.000in /  0mm 0.00 W/m2
20:39 38.0 °F /  3.3 °C 36.0 °F /  2.2 °C 30.2in /  1022.6hPa Calm     92% 0.000in /  0mm 0.00 W/m2
20:44 38.0 °F /  3.3 °C 36.0 °F /  2.2 °C 30.2in /  1022.6hPa Calm     92% 0.000in /  0mm 0.00 W/m2
20:49 38.0 °F /  3.3 °C 36.0 °F /  2.2 °C 30.2in /  1022.6hPa Calm     92% 0.000in /  0mm 0.00 W/m2
20:54 38.0 °F /  3.3 °C 36.0 °F /  2.2 °C 30.2in /  1022.6hPa Calm     92% 0.000in /  0mm 0.00 W/m2
20:59 38.0 °F /  3.3 °C 36.0 °F /  2.2 °C 30.2in /  1022.6hPa Calm     92% 0.000in /  0mm 0.00 W/m2
21:04 38.0 °F /  3.3 °C 36.0 °F /  2.2 °C 30.2in /  1022.6hPa Calm     93% 0.000in /  0mm 0.00 W/m2
21:09 38.0 °F /  3.3 °C 36.0 °F /  2.2 °C 30.2in /  1022.6hPa Calm     93% 0.000in /  0mm 0.00 W/m2
21:14 38.0 °F /  3.3 °C 36.0 °F /  2.2 °C 30.2in /  1022.6hPa Calm     92% 0.000in /  0mm 0.00 W/m2
21:19 38.0 °F /  3.3 °C 36.0 °F /  2.2 °C 30.2in /  1022.6hPa Calm     92% 0.000in /  0mm 0.00 W/m2
21:24 38.0 °F /  3.3 °C 36.0 °F /  2.2 °C 30.2in /  1022.6hPa Calm     92% 0.000in /  0mm 0.00 W/m2
21:29 38.0 °F /  3.3 °C 36.0 °F /  2.2 °C 30.2in /  1022.6hPa Calm     92% 0.000in /  0mm 0.00 W/m2
21:34 38.0 °F /  3.3 °C 36.0 °F /  2.2 °C 30.2in /  1022.6hPa Calm     92% 0.000in /  0mm 0.00 W/m2
21:39 38.0 °F /  3.3 °C 35.0 °F /  1.7 °C 30.2in /  1022.6hPa Calm     92% 0.000in /  0mm 0.00 W/m2
21:44 37.0 °F /  2.8 °C 35.0 °F /  1.7 °C 30.2in /  1022.6hPa Calm     92% 0.000in /  0mm 0.00 W/m2
21:49 37.0 °F /  2.8 °C 35.0 °F /  1.7 °C 30.2in /  1022.6hPa Calm     92% 0.000in /  0mm 0.00 W/m2
21:54 37.0 °F /  2.8 °C 35.0 °F /  1.7 °C 30.2in /  1022.6hPa Calm     92% 0.000in /  0mm 0.00 W/m2
21:59 37.0 °F /  2.8 °C 35.0 °F /  1.7 °C 30.2in /  1022.6hPa Calm     92% 0.000in /  0mm 0.00 W/m2
22:04 37.0 °F /  2.8 °C 35.0 °F /  1.7 °C 30.2in /  1022.6hPa Calm     92% 0.000in /  0mm 0.00 W/m2
22:09 37.0 °F /  2.8 °C 35.0 °F /  1.7 °C 30.2in /  1022.6hPa Calm     92% 0.000in /  0mm 0.00 W/m2
22:14 37.0 °F /  2.8 °C 35.0 °F /  1.7 °C 30.2in /  1022.6hPa Calm     92% 0.000in /  0mm 0.00 W/m2
22:19 37.0 °F /  2.8 °C 35.0 °F /  1.7 °C 30.2in /  1022.6hPa Calm     92% 0.000in /  0mm 0.00 W/m2
22:24 37.0 °F /  2.8 °C 35.0 °F /  1.7 °C 30.2in /  1022.6hPa Calm     92% 0.000in /  0mm 0.00 W/m2
22:29 37.0 °F /  2.8 °C 35.0 °F /  1.7 °C 30.2in /  1022.6hPa Calm     92% 0.000in /  0mm 0.00 W/m2
22:34 37.0 °F /  2.8 °C 34.0 °F /  1.1 °C 30.2in /  1022.6hPa Calm     92% 0.000in /  0mm 0.00 W/m2
22:39 36.0 °F /  2.2 °C 34.0 °F /  1.1 °C 30.2in /  1022.6hPa Calm     92% 0.000in /  0mm 0.00 W/m2
22:44 36.0 °F /  2.2 °C 34.0 °F /  1.1 °C 30.2in /  1022.6hPa Calm     92% 0.000in /  0mm 0.00 W/m2
22:49 36.0 °F /  2.2 °C 34.0 °F /  1.1 °C 30.2in /  1022.6hPa Calm     92% 0.000in /  0mm 0.00 W/m2
22:54 36.0 °F /  2.2 °C 34.0 °F /  1.1 °C 30.2in /  1022.6hPa Calm     92% 0.000in /  0mm 0.00 W/m2
22:59 36.0 °F /  2.2 °C 34.0 °F /  1.1 °C 30.2in /  1022.6hPa Calm     93% 0.000in /  0mm 0.00 W/m2
23:04 36.0 °F /  2.2 °C 34.0 °F /  1.1 °C 30.2in /  1022.6hPa Calm     93% 0.000in /  0mm 0.00 W/m2
23:09 36.0 °F /  2.2 °C 34.0 °F /  1.1 °C 30.2in /  1022.6hPa Calm     92% 0.000in /  0mm 0.00 W/m2
23:14 36.0 °F /  2.2 °C 34.0 °F /  1.1 °C 30.2in /  1022.6hPa Calm     92% 0.000in /  0mm 0.00 W/m2
23:19 36.0 °F /  2.2 °C 34.0 °F /  1.1 °C 30.2in /  1022.6hPa Calm     92% 0.000in /  0mm 0.00 W/m2
23:24 36.0 °F /  2.2 °C 34.0 °F /  1.1 °C 30.2in /  1022.6hPa Calm     93% 0.000in /  0mm 0.00 W/m2
23:29 36.0 °F /  2.2 °C 34.0 °F /  1.1 °C 30.2in /  1022.6hPa Calm     93% 0.000in /  0mm 0.00 W/m2
23:34 36.0 °F /  2.2 °C 34.0 °F /  1.1 °C 30.2in /  1022.6hPa Calm     93% 0.000in /  0mm 0.00 W/m2
23:39 36.0 °F /  2.2 °C 34.0 °F /  1.1 °C 30.2in /  1022.6hPa Calm     93% 0.000in /  0mm 0.00 W/m2
23:44 36.0 °F /  2.2 °C 34.0 °F /  1.1 °C 30.2in /  1022.6hPa Calm     93% 0.000in /  0mm 0.00 W/m2
23:49 36.0 °F /  2.2 °C 34.0 °F /  1.1 °C 30.2in /  1022.6hPa Calm     93% 0.000in /  0mm 0.00 W/m2
23:54 35.0 °F /  1.7 °C 33.0 °F /  0.6 °C 30.2in /  1022.6hPa Calm     92% 0.000in /  0mm 0.00 W/m2
23:59 35.0 °F /  1.7 °C 33.0 °F /  0.6 °C 30.2in /  1022.6hPa Calm     92% 0.000in /  0mm 0.00 W/m2
El Dorado Weather
Compliments of Weather Underground - 4 mb